Time;durP1;ratioP1;P1;durP2;ratioP2;P2;SDS_P1;SDS_P2;PMS_P1;PMS_P2;Temp;Humidity;BMP_temperature;BMP_pressure;BME280_temperature;BME280_humidity;BME280_pressure;Samples;Min_cycle;Max_cycle;Signal;HPM_P1;HPM_P2
2022/08/23 00:00:36;;;;;;;14.68;3.33;;;;;;;-144.43;100.00;67396.00;5084498;28;20032;-60
2022/08/23 00:04:04;;;;;;;12.90;3.22;;;;;;;-144.43;100.00;67396.00;5086428;28;20036;-60
2022/08/23 00:07:29;;;;;;;15.25;2.92;;;;;;;-144.43;100.00;67396.00;5085158;28;20047;-59
2022/08/23 00:10:55;;;;;;;12.70;3.17;;;;;;;-144.43;100.00;67396.00;5082602;28;20028;-60
2022/08/23 00:14:31;;;;;;;13.13;2.67;;;;;;;-144.43;100.00;67396.00;5080911;28;20038;-61
2022/08/23 00:17:58;;;;;;;18.25;3.20;;;;;;;-144.43;100.00;67396.00;5083653;28;20039;-60
2022/08/23 00:21:24;;;;;;;11.80;2.80;;;;;;;-144.43;100.00;67396.00;5087595;28;20041;-60
2022/08/23 00:24:49;;;;;;;11.52;2.80;;;;;;;-144.43;100.00;67396.00;5084319;28;20028;-58
2022/08/23 00:28:15;;;;;;;10.45;3.13;;;;;;;-144.43;100.00;67396.00;5083526;28;20387;-59
2022/08/23 00:31:40;;;;;;;13.65;3.00;;;;;;;-144.43;100.00;67396.00;5081686;28;20502;-60
2022/08/23 00:35:08;;;;;;;11.02;3.10;;;;;;;-144.43;100.00;67396.00;5082224;28;20047;-58
2022/08/23 00:38:34;;;;;;;11.45;3.13;;;;;;;-144.43;100.00;67396.00;5088447;28;20063;-59
2022/08/23 00:47:38;;;;;;;13.20;3.03;;;;;;;-144.43;100.00;67396.00;5084774;28;20032;-58
2022/08/23 00:49:48;;;;;;;12.73;2.55;;;;;;;-144.43;100.00;67396.00;5086629;28;20036;-60
2022/08/23 00:53:23;;;;;;;12.30;2.25;;;;;;;-144.43;100.00;67396.00;5081808;28;20119;-58
2022/08/23 00:56:53;;;;;;;13.82;2.70;;;;;;;-144.43;100.00;67396.00;5089258;28;20034;-58
2022/08/23 01:00:19;;;;;;;14.93;2.55;;;;;;;-144.43;100.00;67396.00;5086975;28;20033;-59
2022/08/23 01:03:51;;;;;;;12.52;2.53;;;;;;;-144.43;100.00;67396.00;5084358;28;20031;-62
2022/08/23 01:07:34;;;;;;;14.60;2.85;;;;;;;-144.43;100.00;67396.00;5083777;28;20036;-59
2022/08/23 01:11:13;;;;;;;17.38;3.08;;;;;;;-144.43;100.00;67396.00;5081610;28;20043;-59
2022/08/23 01:14:42;;;;;;;15.98;2.45;;;;;;;-144.43;100.00;67396.00;5082616;28;20035;-61
2022/08/23 01:18:29;;;;;;;18.35;2.20;;;;;;;-144.43;100.00;67396.00;5079743;28;20124;-61
2022/08/23 01:22:17;;;;;;;10.95;2.30;;;;;;;-144.43;100.00;67396.00;5084622;28;20103;-59
2022/08/23 01:25:42;;;;;;;15.07;2.50;;;;;;;-144.43;100.00;67396.00;5085202;28;20767;-61
2022/08/23 01:29:08;;;;;;;12.85;2.60;;;;;;;-144.43;100.00;67396.00;5084099;28;20039;-61
2022/08/23 01:32:37;;;;;;;17.55;2.80;;;;;;;-144.43;100.00;67396.00;5091038;28;20033;-61
2022/08/23 01:36:03;;;;;;;14.23;2.50;;;;;;;-144.43;100.00;67396.00;5088896;28;20384;-59
2022/08/23 01:39:28;;;;;;;14.85;2.25;;;;;;;-144.43;100.00;67396.00;5089878;28;20482;-60
2022/08/23 01:42:54;;;;;;;9.80;2.33;;;;;;;-144.43;100.00;67396.00;5091572;28;20040;-62
2022/08/23 01:46:21;;;;;;;10.38;2.45;;;;;;;-144.43;100.00;67396.00;5091192;28;20052;-61
2022/08/23 01:49:48;;;;;;;14.32;2.65;;;;;;;-144.43;100.00;67396.00;5091719;28;20043;-61
2022/08/23 01:53:14;;;;;;;16.02;3.35;;;;;;;-144.43;100.00;67396.00;5091554;28;20579;-60
2022/08/23 01:56:44;;;;;;;14.48;2.97;;;;;;;-144.43;100.00;67396.00;5089746;28;20549;-62
2022/08/23 02:00:11;;;;;;;16.50;3.08;;;;;;;-144.43;100.00;67396.00;5091730;28;20032;-60
2022/08/23 02:03:39;;;;;;;11.55;2.72;;;;;;;-144.43;100.00;67396.00;5091842;28;20055;-60
2022/08/23 02:07:05;;;;;;;13.00;3.00;;;;;;;-144.43;100.00;67396.00;5091176;28;20510;-61
2022/08/23 02:10:30;;;;;;;28.35;4.18;;;;;;;-144.43;100.00;67396.00;5092008;28;20043;-61
2022/08/23 02:13:57;;;;;;;13.70;2.95;;;;;;;-144.43;100.00;67396.00;5091973;28;20115;-61
2022/08/23 02:17:31;;;;;;;16.67;4.63;;;;;;;-144.43;100.00;67396.00;5091904;28;20028;-62
2022/08/23 02:20:56;;;;;;;10.40;3.92;;;;;;;-144.43;100.00;67396.00;5091850;28;20028;-62
2022/08/23 02:24:23;;;;;;;;;;;;;;;-144.43;100.00;67396.00;5092119;28;20032;-61
2022/08/23 02:27:50;;;;;;;11.10;2.42;;;;;;;-144.43;100.00;67396.00;5108383;28;19969;-60
2022/08/23 02:31:16;;;;;;;8.20;2.65;;;;;;;-144.43;100.00;67396.00;5091634;28;20108;-62
2022/08/23 02:34:41;;;;;;;;;;;;;;;-144.43;100.00;67396.00;5093230;28;20020;-62
2022/08/23 02:38:10;;;;;;;8.55;2.58;;;;;;;-144.43;100.00;67396.00;5092860;28;19915;-60
2022/08/23 02:41:37;;;;;;;8.65;2.80;;;;;;;-144.43;100.00;67396.00;5087066;28;20028;-61
2022/08/23 02:45:07;;;;;;;11.57;3.08;;;;;;;-144.43;100.00;67396.00;5085829;28;20118;-63
2022/08/23 02:48:37;;;;;;;8.35;2.53;;;;;;;-144.43;100.00;67396.00;5086968;28;20050;-62
2022/08/23 02:52:05;;;;;;;10.70;2.40;;;;;;;-144.43;100.00;67396.00;5091089;28;20145;-62
2022/08/23 02:55:31;;;;;;;9.82;2.60;;;;;;;-144.43;100.00;67396.00;5083719;28;20081;-63
2022/08/23 02:58:57;;;;;;;9.88;2.40;;;;;;;-144.43;100.00;67396.00;5092393;28;20502;-62
2022/08/23 03:02:31;;;;;;;12.98;2.60;;;;;;;-144.43;100.00;67396.00;5090108;28;20032;-62
2022/08/23 03:05:57;;;;;;;9.68;2.67;;;;;;;-144.43;100.00;67396.00;5088431;28;20458;-62
2022/08/23 03:09:22;;;;;;;;;;;;;;;-144.43;100.00;67396.00;5081018;28;20093;-63
2022/08/23 03:12:48;;;;;;;9.80;2.38;;;;;;;-144.43;100.00;67396.00;5091589;28;20035;-62
2022/08/23 03:16:14;;;;;;;9.00;2.40;;;;;;;-144.43;100.00;67396.00;5091613;28;20034;-62
2022/08/23 03:19:44;;;;;;;6.72;2.45;;;;;;;-144.43;100.00;67396.00;5090286;28;20036;-62
2022/08/23 03:23:10;;;;;;;9.13;2.40;;;;;;;-144.43;100.00;67396.00;5087703;28;20403;-62
2022/08/23 03:26:36;;;;;;;8.10;2.80;;;;;;;-144.43;100.00;67396.00;5121702;27;20024;-62
2022/08/23 03:30:01;;;;;;;5.88;2.60;;;;;;;-144.43;100.00;67396.00;5065366;28;20054;-62
2022/08/23 03:33:29;;;;;;;9.05;2.83;;;;;;;-144.43;100.00;67396.00;5086032;28;20039;-62
2022/08/23 03:36:58;;;;;;;9.43;2.67;;;;;;;-144.43;100.00;67396.00;5095778;28;20546;-62
2022/08/23 03:40:24;;;;;;;15.05;3.15;;;;;;;-144.43;100.00;67396.00;5088100;28;20040;-62
2022/08/23 03:43:51;;;;;;;9.75;2.67;;;;;;;-144.43;100.00;67396.00;5083356;28;20035;-62
2022/08/23 03:47:17;;;;;;;5.93;2.90;;;;;;;-144.43;100.00;67396.00;5088438;28;20038;-62
2022/08/23 03:50:44;;;;;;;7.05;2.83;;;;;;;-144.43;100.00;67396.00;5098368;28;20027;-62
2022/08/23 03:54:11;;;;;;;7.03;2.78;;;;;;;-144.43;100.00;67396.00;5088795;28;20024;-61
2022/08/23 03:57:37;;;;;;;8.75;2.88;;;;;;;-144.43;100.00;67396.00;5091196;28;20028;-61
2022/08/23 04:01:04;;;;;;;15.32;3.00;;;;;;;-144.43;100.00;67396.00;5089504;28;20036;-61
2022/08/23 04:04:30;;;;;;;11.70;2.88;;;;;;;-144.43;100.00;67396.00;5085805;28;20040;-61
2022/08/23 04:08:28;;;;;;;9.18;2.80;;;;;;;-144.43;100.00;67396.00;5056278;28;20047;-60
2022/08/23 04:11:53;;;;;;;7.13;2.70;;;;;;;-144.43;100.00;67396.00;5089920;28;20032;-62
2022/08/23 04:15:19;;;;;;;8.23;2.88;;;;;;;-144.43;100.00;67396.00;5091337;28;20039;-62
2022/08/23 04:18:46;;;;;;;7.82;2.85;;;;;;;-144.43;100.00;67396.00;5095319;28;20032;-62
2022/08/23 04:22:16;;;;;;;10.75;3.10;;;;;;;-144.43;100.00;67396.00;5094703;28;20114;-61
2022/08/23 04:25:44;;;;;;;9.23;3.20;;;;;;;-144.43;100.00;67396.00;5094174;28;20432;-61
2022/08/23 04:29:13;;;;;;;8.20;2.80;;;;;;;-144.43;100.00;67396.00;5094542;28;20107;-61
2022/08/23 04:32:38;;;;;;;6.93;2.80;;;;;;;-144.43;100.00;67396.00;5096069;28;20103;-61
2022/08/23 04:36:04;;;;;;;7.32;3.03;;;;;;;-144.43;100.00;67396.00;5095217;28;20028;-60
2022/08/23 04:42:16;;;;;;;7.53;2.78;;;;;;;-144.43;100.00;67396.00;5096654;28;20032;-61
2022/08/23 04:43:14;;;;;;;9.70;3.00;;;;;;;-144.43;100.00;67396.00;5095337;28;20043;-61
2022/08/23 04:46:42;;;;;;;6.72;2.67;;;;;;;-144.43;100.00;67396.00;5089985;28;20082;-62
2022/08/23 04:50:08;;;;;;;11.52;3.10;;;;;;;-144.43;100.00;67396.00;5089926;28;20037;-60
2022/08/23 04:53:45;;;;;;;9.40;2.83;;;;;;;-144.43;100.00;67396.00;5092717;28;20386;-59
2022/08/23 04:57:31;;;;;;;7.43;2.65;;;;;;;-144.43;100.00;67396.00;5087965;28;20044;-60
2022/08/23 05:00:57;;;;;;;6.32;2.72;;;;;;;-144.43;100.00;67396.00;5111041;28;20097;-59
2022/08/23 05:04:25;;;;;;;11.52;2.95;;;;;;;-144.43;100.00;67396.00;5094647;28;20134;-60
2022/08/23 05:07:51;;;;;;;7.28;2.70;;;;;;;-144.43;100.00;67396.00;5093524;28;20066;-60
2022/08/23 05:11:17;;;;;;;16.77;2.75;;;;;;;-144.43;100.00;67396.00;5092697;28;20036;-60
2022/08/23 05:14:45;;;;;;;11.18;2.95;;;;;;;-144.43;100.00;67396.00;5092668;28;20394;-60
2022/08/23 05:18:10;;;;;;;6.50;2.28;;;;;;;-144.43;100.00;67396.00;5094158;28;20036;-60
2022/08/23 05:21:38;;;;;;;7.97;2.53;;;;;;;-144.43;100.00;67396.00;5092349;28;20051;-59
2022/08/23 05:25:04;;;;;;;7.50;2.47;;;;;;;-144.43;100.00;67396.00;5093854;28;20039;-61
2022/08/23 05:28:31;;;;;;;;;;;;;;;-144.43;100.00;67396.00;5094870;28;20048;-61
2022/08/23 05:32:05;;;;;;;6.13;2.53;;;;;;;-144.43;100.00;67396.00;5094646;28;19916;-61
2022/08/23 05:35:30;;;;;;;7.05;2.35;;;;;;;-144.43;100.00;67396.00;5094541;28;20036;-60
2022/08/23 05:38:56;;;;;;;6.63;2.63;;;;;;;-144.43;100.00;67396.00;5094301;28;20085;-61
2022/08/23 05:42:21;;;;;;;;;;;;;;;-144.43;100.00;67396.00;5094635;28;20044;-60
2022/08/23 05:45:47;;;;;;;9.38;2.75;;;;;;;-144.43;100.00;67396.00;5094285;28;20297;-60
2022/08/23 05:49:13;;;;;;;6.45;2.53;;;;;;;-144.43;100.00;67396.00;5094061;28;20071;-61
2022/08/23 05:52:38;;;;;;;5.88;2.35;;;;;;;-144.43;100.00;67396.00;5094120;28;20032;-61
2022/08/23 05:56:10;;;;;;;8.38;2.50;;;;;;;-144.43;100.00;67396.00;5102379;28;20032;-61
2022/08/23 05:59:35;;;;;;;7.57;2.40;;;;;;;-144.43;100.00;67396.00;5095198;28;20036;-61
2022/08/23 06:03:02;;;;;;;11.98;2.72;;;;;;;-144.43;100.00;67396.00;5093772;28;20039;-62
2022/08/23 06:06:27;;;;;;;7.53;2.60;;;;;;;-144.43;100.00;67396.00;5095125;28;20048;-59
2022/08/23 06:09:54;;;;;;;6.30;2.42;;;;;;;-144.43;100.00;67396.00;5093825;28;20568;-60
2022/08/23 06:13:19;;;;;;;6.45;2.33;;;;;;;-144.43;100.00;67396.00;5093796;28;20032;-62
2022/08/23 06:16:47;;;;;;;9.05;2.60;;;;;;;-144.43;100.00;67396.00;5093750;28;20036;-60
2022/08/23 06:20:17;;;;;;;9.63;2.58;;;;;;;-144.43;100.00;67396.00;5092278;28;20044;-61
2022/08/23 06:23:57;;;;;;;8.95;2.60;;;;;;;-144.43;100.00;67396.00;5091706;28;20032;-62
2022/08/23 06:27:30;;;;;;;13.02;2.58;;;;;;;-144.43;100.00;67396.00;5092488;28;20081;-61
2022/08/23 06:30:56;;;;;;;6.80;2.35;;;;;;;-144.43;100.00;67396.00;5092159;28;20496;-61
2022/08/23 06:34:33;;;;;;;6.45;2.28;;;;;;;-144.43;100.00;67396.00;5091232;28;20063;-61
2022/08/23 06:38:20;;;;;;;7.70;2.35;;;;;;;-144.43;100.00;67396.00;5089839;28;20368;-59
2022/08/23 06:42:12;;;;;;;7.80;2.30;;;;;;;-144.43;100.00;67396.00;5089259;28;20036;-61
2022/08/23 06:45:42;;;;;;;6.25;2.17;;;;;;;-144.43;100.00;67396.00;5092243;28;20032;-62
2022/08/23 06:49:08;;;;;;;5.60;2.10;;;;;;;-144.43;100.00;67396.00;5092663;28;20089;-61
2022/08/23 06:52:35;;;;;;;6.47;2.20;;;;;;;-144.43;100.00;67396.00;5094137;28;20063;-62
2022/08/23 06:56:18;;;;;;;6.75;2.20;;;;;;;-144.43;100.00;67396.00;5092427;28;20490;-62
2022/08/23 07:00:02;;;;;;;5.95;2.20;;;;;;;-144.43;100.00;67396.00;5092299;28;20039;-63
2022/08/23 07:03:52;;;;;;;6.00;1.88;;;;;;;-144.43;100.00;67396.00;5093284;28;20048;-62
2022/08/23 07:07:37;;;;;;;5.45;2.13;;;;;;;-144.43;100.00;67396.00;5093530;28;20509;-61
2022/08/23 07:11:03;;;;;;;8.90;2.30;;;;;;;-144.43;100.00;67396.00;5091836;28;20032;-62
2022/08/23 07:14:29;;;;;;;5.03;1.90;;;;;;;-144.43;100.00;67396.00;5109115;28;20478;-61
2022/08/23 07:17:56;;;;;;;7.45;2.28;;;;;;;-144.43;100.00;67396.00;5092077;28;20040;-62
2022/08/23 07:21:22;;;;;;;5.10;2.20;;;;;;;-144.43;100.00;67396.00;5089236;28;20035;-59
2022/08/23 07:24:47;;;;;;;3.67;2.05;;;;;;;-144.43;100.00;67396.00;5086840;28;20043;-60
2022/08/23 07:28:13;;;;;;;3.85;2.03;;;;;;;-144.43;100.00;67396.00;5084161;28;20499;-60
2022/08/23 07:31:42;;;;;;;5.47;1.98;;;;;;;-144.43;100.00;67396.00;5080098;28;20471;-59
2022/08/23 07:35:08;;;;;;;3.38;1.70;;;;;;;-144.43;100.00;67396.00;5086471;28;20029;-61
2022/08/23 07:38:36;;;;;;;7.00;1.88;;;;;;;-144.43;100.00;67396.00;5086977;28;20043;-61
2022/08/23 07:42:03;;;;;;;4.70;1.95;;;;;;;-144.43;100.00;67396.00;5082299;28;20046;-60
2022/08/23 07:45:30;;;;;;;7.00;1.92;;;;;;;-144.43;100.00;67396.00;5092568;28;20042;-61
2022/08/23 07:48:59;;;;;;;6.75;2.30;;;;;;;-144.43;100.00;67396.00;5074228;28;20130;-61
2022/08/23 07:52:32;;;;;;;7.28;2.38;;;;;;;-144.43;100.00;67396.00;5082188;28;20036;-61
2022/08/23 07:55:58;;;;;;;6.25;1.80;;;;;;;-144.43;100.00;67396.00;5079619;28;20045;-60
2022/08/23 07:59:41;;;;;;;5.60;1.80;;;;;;;-144.43;100.00;67396.00;5092723;28;20055;-62
2022/08/23 08:03:23;;;;;;;6.35;2.25;;;;;;;-144.43;100.00;67396.00;5092476;28;20036;-61
2022/08/23 08:07:07;;;;;;;5.50;2.05;;;;;;;-144.43;100.00;67396.00;5075155;28;20075;-61
2022/08/23 08:10:37;;;;;;;5.53;1.88;;;;;;;-144.43;100.00;67396.00;5091118;28;20394;-61
2022/08/23 08:14:04;;;;;;;4.20;1.80;;;;;;;-144.43;100.00;67396.00;5082768;28;20039;-61
2022/08/23 08:17:35;;;;;;;4.57;1.73;;;;;;;-144.43;100.00;67396.00;5091757;28;20045;-61
2022/08/23 08:21:12;;;;;;;6.05;2.10;;;;;;;-144.43;100.00;67396.00;5076865;28;20065;-61
2022/08/23 08:24:58;;;;;;;4.15;1.98;;;;;;;-144.43;100.00;67396.00;5075142;28;20044;-61
2022/08/23 08:28:23;;;;;;;8.00;2.70;;;;;;;-144.43;100.00;67396.00;5090909;28;20432;-61
2022/08/23 08:31:49;;;;;;;6.10;2.43;;;;;;;-144.43;100.00;67396.00;5090930;28;20028;-62
2022/08/23 08:35:15;;;;;;;95.43;8.85;;;;;;;-144.43;100.00;67396.00;5090616;28;20040;-62
2022/08/23 08:38:41;;;;;;;10.35;2.65;;;;;;;-144.43;100.00;67396.00;5073921;28;20044;-62
2022/08/23 08:42:22;;;;;;;11.77;2.87;;;;;;;-144.43;100.00;67396.00;5090780;28;20043;-61
2022/08/23 08:46:01;;;;;;;7.38;3.13;;;;;;;-144.43;100.00;67396.00;5083107;28;20028;-60
2022/08/23 08:49:29;;;;;;;10.80;2.80;;;;;;;-144.43;100.00;67396.00;5083148;28;20040;-61
2022/08/23 08:53:05;;;;;;;8.88;2.60;;;;;;;-144.43;100.00;67396.00;5089112;28;20505;-60
2022/08/23 08:57:15;;;;;;;5.38;2.38;;;;;;;-144.43;100.00;67396.00;5009079;28;20471;-63
2022/08/23 09:00:57;;;;;;;7.90;2.45;;;;;;;-144.43;100.00;67396.00;5090582;28;20040;-61
2022/08/23 09:04:28;;;;;;;5.63;1.88;;;;;;;-144.43;100.00;67396.00;5079536;28;20035;-62
2022/08/23 09:08:00;;;;;;;4.40;1.73;;;;;;;-144.43;100.00;67396.00;5093691;28;20094;-62
2022/08/23 09:11:30;;;;;;;5.97;2.10;;;;;;;-144.43;100.00;67396.00;5093280;28;20110;-61
2022/08/23 09:15:32;;;;;;;8.07;2.00;;;;;;;-144.43;100.00;67396.00;5077341;28;20089;-61
2022/08/23 09:19:05;;;;;;;4.28;2.00;;;;;;;-144.43;100.00;67396.00;5077154;28;20036;-62
2022/08/23 09:23:08;;;;;;;9.30;3.90;;;;;;;-144.43;100.00;67396.00;5084908;28;20505;-61
2022/08/23 09:26:36;;;;;;;9.27;4.38;;;;;;;-144.43;100.00;67396.00;5106615;28;20085;-61
2022/08/23 09:30:44;;;;;;;8.00;4.18;;;;;;;-144.43;100.00;67396.00;5079631;28;20035;-61
2022/08/23 09:34:14;;;;;;;;;;;;;;;-144.43;100.00;67396.00;5092466;28;20040;-61
2022/08/23 09:38:15;;;;;;;7.47;3.53;;;;;;;-144.43;100.00;67396.00;5081885;28;19920;-60
2022/08/23 09:41:47;;;;;;;9.15;3.78;;;;;;;-144.43;100.00;67396.00;5091959;28;20123;-61
2022/08/23 09:45:35;;;;;;;10.60;3.83;;;;;;;-144.43;100.00;67396.00;5095042;28;20031;-62
2022/08/23 09:49:22;;;;;;;10.30;3.30;;;;;;;-144.43;100.00;67396.00;5073826;28;20574;-62
2022/08/23 09:52:49;;;;;;;11.95;4.20;;;;;;;-144.43;100.00;67396.00;5091478;28;20494;-61
2022/08/23 09:56:27;;;;;;;7.30;2.90;;;;;;;-144.43;100.00;67396.00;5093455;28;20036;-62
2022/08/23 09:59:55;;;;;;;9.85;3.20;;;;;;;-144.43;100.00;67396.00;5093117;28;20040;-62
2022/08/23 10:03:31;;;;;;;7.40;3.03;;;;;;;-144.43;100.00;67396.00;5093334;28;20185;-61
2022/08/23 10:07:25;;;;;;;9.18;3.40;;;;;;;-144.43;100.00;67396.00;5077414;28;20040;-60
2022/08/23 10:10:55;;;;;;;7.30;3.53;;;;;;;-144.43;100.00;67396.00;5080354;28;20486;-61
2022/08/23 10:14:31;;;;;;;;;;;;;;;-144.43;100.00;67396.00;5077779;28;20107;-61
2022/08/23 10:18:06;;;;;;;5.93;3.03;;;;;;;-144.43;100.00;67396.00;5082714;28;19916;-61
2022/08/23 10:21:52;;;;;;;7.88;3.10;;;;;;;-144.43;100.00;67396.00;5093005;28;20111;-61
2022/08/23 10:25:51;;;;;;;9.15;3.47;;;;;;;-144.43;100.00;67396.00;5087137;28;20032;-62
2022/08/23 10:29:36;;;;;;;6.18;3.55;;;;;;;-144.43;100.00;67396.00;5078408;28;20032;-62
2022/08/23 10:33:44;;;;;;;11.55;3.30;;;;;;;-144.43;100.00;67396.00;5076294;28;20032;-61
2022/08/23 10:37:31;;;;;;;10.10;3.13;;;;;;;-144.43;100.00;67396.00;5077358;28;20181;-61
2022/08/23 10:41:20;;;;;;;7.70;3.05;;;;;;;-144.43;100.00;67396.00;5089305;28;20533;-61
2022/08/23 10:45:05;;;;;;;7.45;2.80;;;;;;;-144.43;100.00;67396.00;5090298;28;20043;-60
2022/08/23 10:48:41;;;;;;;7.25;3.40;;;;;;;-144.43;100.00;67396.00;5088179;28;20042;-62
2022/08/23 10:52:32;;;;;;;6.68;3.03;;;;;;;-144.43;100.00;67396.00;5084911;28;20032;-62
2022/08/23 10:56:01;;;;;;;9.77;3.38;;;;;;;-144.43;100.00;67396.00;5075020;28;20526;-63
2022/08/23 10:59:36;;;;;;;9.38;3.35;;;;;;;-144.43;100.00;67396.00;5093672;28;20032;-62
2022/08/23 11:03:30;;;;;;;9.15;3.40;;;;;;;-144.43;100.00;67396.00;5075298;28;20028;-62
2022/08/23 11:07:33;;;;;;;7.35;2.92;;;;;;;-144.43;100.00;67396.00;5088851;28;20075;-61
2022/08/23 11:11:25;;;;;;;8.18;3.38;;;;;;;-144.43;100.00;67396.00;5066689;28;20514;-60
2022/08/23 11:15:06;;;;;;;13.32;3.80;;;;;;;-144.43;100.00;67396.00;5076304;28;20037;-62
2022/08/23 11:18:42;;;;;;;8.73;3.28;;;;;;;-144.43;100.00;67396.00;5075053;28;20035;-62
2022/08/23 11:22:31;;;;;;;28.73;4.95;;;;;;;-144.43;100.00;67396.00;5082341;28;20040;-62
2022/08/23 11:26:00;;;;;;;11.23;4.03;;;;;;;-144.43;100.00;67396.00;5079660;28;20041;-63
2022/08/23 11:29:26;;;;;;;8.38;3.70;;;;;;;-144.43;100.00;67396.00;5084358;28;20063;-62
2022/08/23 11:33:33;;;;;;;8.68;3.30;;;;;;;-144.43;100.00;67396.00;5077745;28;20028;-61
2022/08/23 11:37:20;;;;;;;10.88;3.88;;;;;;;-144.43;100.00;67396.00;5093344;28;20036;-61
2022/08/23 11:40:58;;;;;;;10.95;4.47;;;;;;;-144.43;100.00;67396.00;5089154;28;20036;-62
2022/08/23 11:44:33;;;;;;;13.98;4.75;;;;;;;-144.43;100.00;67396.00;5087393;28;20455;-62
2022/08/23 11:48:15;;;;;;;11.30;4.68;;;;;;;-144.43;100.00;67396.00;5070923;28;20526;-61
2022/08/23 11:52:08;;;;;;;13.95;4.65;;;;;;;-144.43;100.00;67396.00;5085106;28;20462;-61
2022/08/23 11:55:45;;;;;;;8.52;4.10;;;;;;;-144.43;100.00;67396.00;5084779;28;20147;-61
2022/08/23 11:59:49;;;;;;;10.95;4.15;;;;;;;-144.43;100.00;67396.00;5092574;28;20091;-62
2022/08/23 12:03:53;;;;;;;11.55;4.40;;;;;;;-144.43;100.00;67396.00;5077901;28;20044;-61
2022/08/23 12:07:36;;;;;;;11.75;5.00;;;;;;;-144.43;100.00;67396.00;5086388;28;20378;-62
2022/08/23 12:11:05;;;;;;;14.48;6.78;;;;;;;-144.43;100.00;67396.00;5075870;28;20036;-61
2022/08/23 12:14:42;;;;;;;15.13;8.95;;;;;;;-144.43;100.00;67396.00;5092657;28;20032;-60
2022/08/23 12:18:11;;;;;;;19.92;9.95;;;;;;;-144.43;100.00;67396.00;5085032;28;20055;-61
2022/08/23 12:21:55;;;;;;;11.68;6.30;;;;;;;-144.43;100.00;67396.00;5092457;28;20032;-60
2022/08/23 12:25:30;;;;;;;13.70;5.47;;;;;;;-144.43;100.00;67396.00;5078508;28;20036;-61
2022/08/23 12:29:06;;;;;;;10.85;5.22;;;;;;;-144.43;100.00;67396.00;5089381;28;20037;-61
2022/08/23 12:33:12;;;;;;;12.30;5.00;;;;;;;-144.43;100.00;67396.00;5087720;28;20390;-61
2022/08/23 12:36:48;;;;;;;19.45;9.63;;;;;;;-144.43;100.00;67396.00;5033916;28;20547;-62
2022/08/23 12:40:33;;;;;;;13.23;7.10;;;;;;;-144.43;100.00;67396.00;5089890;28;20426;-60
2022/08/23 12:44:05;;;;;;;12.57;4.93;;;;;;;-144.43;100.00;67396.00;5084230;28;20048;-60
2022/08/23 12:47:34;;;;;;;10.02;4.90;;;;;;;-144.43;100.00;67396.00;5096671;28;20032;-62
2022/08/23 12:51:06;;;;;;;13.10;4.15;;;;;;;-144.43;100.00;67396.00;5095576;28;20060;-63
2022/08/23 12:54:40;;;;;;;13.40;4.85;;;;;;;-144.43;100.00;67396.00;5093911;28;20043;-62
2022/08/23 12:58:07;;;;;;;16.58;8.52;;;;;;;-144.43;100.00;67396.00;5094041;28;20478;-61
2022/08/23 13:02:00;;;;;;;15.38;8.77;;;;;;;-144.43;100.00;67396.00;5095781;28;20129;-60
2022/08/23 13:05:29;;;;;;;14.05;6.65;;;;;;;-144.43;100.00;67396.00;5092611;28;20177;-63
2022/08/23 13:09:00;;;;;;;13.65;5.65;;;;;;;-144.43;100.00;67396.00;5095256;28;20090;-61
2022/08/23 13:12:29;;;;;;;14.25;4.55;;;;;;;-144.43;100.00;67396.00;5092806;28;20040;-62
2022/08/23 13:15:59;;;;;;;14.43;4.90;;;;;;;-144.43;100.00;67396.00;5094862;28;20105;-62
2022/08/23 13:19:30;;;;;;;14.55;4.38;;;;;;;-144.43;100.00;67396.00;5095574;28;20032;-60
2022/08/23 13:23:08;;;;;;;15.85;4.80;;;;;;;-144.43;100.00;67396.00;5095646;28;20080;-60
2022/08/23 13:26:42;;;;;;;14.85;5.00;;;;;;;-144.43;100.00;67396.00;5095317;28;20134;-61
2022/08/23 13:30:09;;;;;;;16.40;4.82;;;;;;;-144.43;100.00;67396.00;5089459;28;20398;-62
2022/08/23 13:33:36;;;;;;;21.25;5.03;;;;;;;-144.43;100.00;67396.00;5095120;28;20047;-61
2022/08/23 13:37:27;;;;;;;18.00;5.03;;;;;;;-144.43;100.00;67396.00;5094748;28;20500;-59
2022/08/23 13:41:05;;;;;;;15.82;5.40;;;;;;;-144.43;100.00;67396.00;5092263;28;20054;-60
2022/08/23 13:44:43;;;;;;;20.17;5.47;;;;;;;-144.43;100.00;67396.00;5090438;28;20115;-59
2022/08/23 13:48:19;;;;;;;17.45;5.45;;;;;;;-144.43;100.00;67396.00;5087631;28;20043;-60
2022/08/23 13:52:00;;;;;;;24.20;5.18;;;;;;;-144.43;100.00;67396.00;5084165;28;20112;-59
2022/08/23 13:55:27;;;;;;;16.60;5.10;;;;;;;-144.43;100.00;67396.00;5085929;28;20063;-61
2022/08/23 13:58:55;;;;;;;15.95;5.20;;;;;;;-144.43;100.00;67396.00;5089645;28;20044;-61
2022/08/23 14:02:22;;;;;;;21.80;5.72;;;;;;;-144.43;100.00;67396.00;5087607;28;20047;-60
2022/08/23 14:05:47;;;;;;;;;;;;;;;-144.43;100.00;67396.00;5093622;28;20494;-60
2022/08/23 14:09:12;;;;;;;16.92;5.10;;;;;;;-144.43;100.00;67396.00;5079437;28;19926;-61
2022/08/23 14:12:37;;;;;;;11.38;4.25;;;;;;;-144.43;100.00;67396.00;5094030;28;20035;-59
2022/08/23 14:16:07;;;;;;;15.68;4.50;;;;;;;-144.43;100.00;67396.00;5094430;28;20080;-60
2022/08/23 14:19:33;;;;;;;13.50;4.30;;;;;;;-144.43;100.00;67396.00;5094319;28;20075;-59
2022/08/23 14:22:59;;;;;;;31.55;5.97;;;;;;;-144.43;100.00;67396.00;5085402;28;20082;-60
2022/08/23 14:26:25;;;;;;;22.83;5.70;;;;;;;-144.43;100.00;67396.00;5094152;28;20036;-60
2022/08/23 14:29:50;;;;;;;12.15;4.43;;;;;;;-144.43;100.00;67396.00;5094036;28;20043;-60
2022/08/23 14:33:15;;;;;;;12.53;4.27;;;;;;;-144.43;100.00;67396.00;5092036;28;20033;-61
2022/08/23 14:36:41;;;;;;;16.00;5.13;;;;;;;-144.43;100.00;67396.00;5096679;28;20032;-61
2022/08/23 14:40:08;;;;;;;12.63;5.55;;;;;;;-144.43;100.00;67396.00;5081387;28;20111;-60
2022/08/23 14:43:33;;;;;;;17.92;7.63;;;;;;;-144.43;100.00;67396.00;5093891;28;20418;-61
2022/08/23 14:46:58;;;;;;;20.73;8.93;;;;;;;-144.43;100.00;67396.00;5077112;28;20027;-61
2022/08/23 14:50:24;;;;;;;18.83;7.10;;;;;;;-144.43;100.00;67396.00;5078763;28;20274;-62
2022/08/23 14:53:49;;;;;;;22.58;9.57;;;;;;;-144.43;100.00;67396.00;5093690;28;20028;-61
2022/08/23 14:57:15;;;;;;;18.52;7.22;;;;;;;-144.43;100.00;67396.00;5087160;28;20037;-61
2022/08/23 15:00:42;;;;;;;12.80;4.83;;;;;;;-144.43;100.00;67396.00;5090252;28;20036;-60
2022/08/23 15:04:08;;;;;;;13.93;4.80;;;;;;;-144.43;100.00;67396.00;5085309;28;20032;-60
2022/08/23 15:07:34;;;;;;;15.80;4.25;;;;;;;-144.43;100.00;67396.00;5090632;28;20067;-61
2022/08/23 15:10:59;;;;;;;46.70;5.20;;;;;;;-144.43;100.00;67396.00;5081685;28;20043;-59
2022/08/23 15:14:24;;;;;;;27.20;5.22;;;;;;;-144.43;100.00;67396.00;5080291;28;20029;-61
2022/08/23 15:17:55;;;;;;;33.60;5.57;;;;;;;-144.43;100.00;67396.00;5080166;28;20074;-61
2022/08/23 15:21:22;;;;;;;13.38;4.75;;;;;;;-144.43;100.00;67396.00;5083899;28;20284;-61
2022/08/23 15:24:48;;;;;;;27.00;5.97;;;;;;;-144.43;100.00;67396.00;5077523;28;20032;-60
2022/08/23 15:28:23;;;;;;;14.35;5.70;;;;;;;-144.43;100.00;67396.00;5081363;28;20394;-59
2022/08/23 15:31:49;;;;;;;12.60;5.40;;;;;;;-144.43;100.00;67396.00;5084181;28;20032;-61
2022/08/23 15:35:14;;;;;;;14.27;5.22;;;;;;;-144.43;100.00;67396.00;5092032;28;20031;-61
2022/08/23 15:38:39;;;;;;;15.80;5.87;;;;;;;-144.43;100.00;67396.00;5092541;28;20494;-61
2022/08/23 15:42:05;;;;;;;18.02;6.63;;;;;;;-144.43;100.00;67396.00;5092212;28;20082;-60
2022/08/23 15:45:32;;;;;;;13.32;7.07;;;;;;;-144.43;100.00;67396.00;5092797;28;20047;-60
2022/08/23 15:49:01;;;;;;;15.35;7.28;;;;;;;-144.43;100.00;67396.00;5075932;28;20024;-59
2022/08/23 15:52:27;;;;;;;15.15;8.00;;;;;;;-144.43;100.00;67396.00;5092840;28;20127;-60
2022/08/23 15:55:52;;;;;;;14.18;8.55;;;;;;;-144.43;100.00;67396.00;5082173;28;20486;-60
2022/08/23 15:59:23;;;;;;;16.05;10.65;;;;;;;-144.43;100.00;67396.00;5091248;28;20123;-60
2022/08/23 16:02:49;;;;;;;14.50;8.77;;;;;;;-144.43;100.00;67396.00;5090675;28;20375;-60
2022/08/23 16:06:14;;;;;;;;;;;;;;;-144.43;100.00;67396.00;5091231;28;20158;-61